sensor_id;sensor_type;location;lat;lon;timestamp;pressure;altitude;pressure_sealevel;temperature;humidity
5883;BME280;2967;51.488;6.618;2023-03-01T00:04:13;102729.69;;;1.98;98.94
5883;BME280;2967;51.488;6.618;2023-03-01T00:09:16;102794.13;;;2.38;99.58
5883;BME280;2967;51.488;6.618;2023-03-01T00:14:19;102785.38;;;2.24;99.27
5883;BME280;2967;51.488;6.618;2023-03-01T00:19:24;102775.81;;;2.20;98.61
5883;BME280;2967;51.488;6.618;2023-03-01T00:24:26;102792.38;;;2.40;98.31
5883;BME280;2967;51.488;6.618;2023-03-01T00:29:29;102764.53;;;2.27;98.28
5883;BME280;2967;51.488;6.618;2023-03-01T00:34:36;102698.34;;;1.79;98.22
5883;BME280;2967;51.488;6.618;2023-03-01T00:39:39;102772.34;;;2.24;98.49
5883;BME280;2967;51.488;6.618;2023-03-01T00:44:41;102774.09;;;2.24;98.42
5883;BME280;2967;51.488;6.618;2023-03-01T00:49:46;102751.44;;;2.08;98.27
5883;BME280;2967;51.488;6.618;2023-03-01T00:54:52;102683.56;;;1.61;98.53
5883;BME280;2967;51.488;6.618;2023-03-01T00:59:55;102754.06;;;2.15;98.38
5883;BME280;2967;51.488;6.618;2023-03-01T01:05:01;102747.97;;;2.01;99.36
5883;BME280;2967;51.488;6.618;2023-03-01T01:10:04;102674.84;;;1.52;99.87
5883;BME280;2967;51.488;6.618;2023-03-01T01:15:08;102736.66;;;1.96;99.51
5883;BME280;2967;51.488;6.618;2023-03-01T01:20:15;102731.44;;;1.96;99.61
5883;BME280;2967;51.488;6.618;2023-03-01T01:25:18;102721.00;;;1.99;99.29
5883;BME280;2967;51.488;6.618;2023-03-01T01:30:21;102720.09;;;1.78;100.00
5883;BME280;2967;51.488;6.618;2023-03-01T01:35:25;102675.72;;;1.61;99.70
5883;BME280;2967;51.488;6.618;2023-03-01T01:40:27;102659.22;;;1.62;99.40
5883;BME280;2967;51.488;6.618;2023-03-01T01:45:32;102689.69;;;1.83;99.78
5883;BME280;2967;51.488;6.618;2023-03-01T01:50:39;102693.13;;;1.64;99.93
5883;BME280;2967;51.488;6.618;2023-03-01T01:55:45;102685.28;;;1.50;99.91
5883;BME280;2967;51.488;6.618;2023-03-01T02:00:49;102695.72;;;1.62;99.68
5883;BME280;2967;51.488;6.618;2023-03-01T02:05:57;102697.44;;;1.56;99.56
5883;BME280;2967;51.488;6.618;2023-03-01T02:11:01;102618.25;;;1.13;99.39
5883;BME280;2967;51.488;6.618;2023-03-01T02:16:08;102686.16;;;1.54;100.00
5883;BME280;2967;51.488;6.618;2023-03-01T02:21:22;102692.22;;;1.54;99.34
5883;BME280;2967;51.488;6.618;2023-03-01T02:26:34;102642.66;;;1.38;99.59
5883;BME280;2967;51.488;6.618;2023-03-01T02:31:40;102667.88;;;1.45;100.00
5883;BME280;2967;51.488;6.618;2023-03-01T02:36:48;102671.28;;;1.26;100.00
5883;BME280;2967;51.488;6.618;2023-03-01T02:41:54;102606.88;;;0.84;100.00
5883;BME280;2967;51.488;6.618;2023-03-01T02:47:01;102662.66;;;1.42;100.00
5883;BME280;2967;51.488;6.618;2023-03-01T02:57:34;102594.69;;;0.74;100.00
5883;BME280;2967;51.488;6.618;2023-03-01T03:02:39;102685.19;;;1.17;100.00
5883;BME280;2967;51.488;6.618;2023-03-01T03:08:06;102683.47;;;1.25;100.00
5883;BME280;2967;51.488;6.618;2023-03-01T03:13:12;102594.72;;;0.88;100.00
5883;BME280;2967;51.488;6.618;2023-03-01T03:18:17;102674.81;;;1.38;100.00
5883;BME280;2967;51.488;6.618;2023-03-01T03:23:21;102671.34;;;1.42;99.92
5883;BME280;2967;51.488;6.618;2023-03-01T03:28:24;102559.88;;;0.54;100.00
5883;BME280;2967;51.488;6.618;2023-03-01T03:33:28;102625.19;;;0.96;100.00
5883;BME280;2967;51.488;6.618;2023-03-01T03:38:31;102613.88;;;1.00;100.00
5883;BME280;2967;51.488;6.618;2023-03-01T03:43:39;102620.88;;;1.07;100.00
5883;BME280;2967;51.488;6.618;2023-03-01T03:48:45;102629.56;;;1.09;100.00
5883;BME280;2967;51.488;6.618;2023-03-01T03:53:48;102660.03;;;1.37;100.00
5883;BME280;2967;51.488;6.618;2023-03-01T03:58:51;102657.41;;;1.21;100.00
5883;BME280;2967;51.488;6.618;2023-03-01T04:03:55;102659.16;;;1.32;100.00
5883;BME280;2967;51.488;6.618;2023-03-01T04:08:57;102620.91;;;1.19;100.00
5883;BME280;2967;51.488;6.618;2023-03-01T04:14:03;102492.22;;;0.60;100.00
5883;BME280;2967;51.488;6.618;2023-03-01T04:19:07;102486.06;;;0.34;100.00
5883;BME280;2967;51.488;6.618;2023-03-01T04:24:10;102625.25;;;1.22;100.00
5883;BME280;2967;51.488;6.618;2023-03-01T04:29:13;102608.72;;;1.21;100.00
5883;BME280;2967;51.488;6.618;2023-03-01T04:34:17;102630.44;;;1.20;100.00
5883;BME280;2967;51.488;6.618;2023-03-01T04:39:21;102652.16;;;1.16;100.00
5883;BME280;2967;51.488;6.618;2023-03-01T04:44:27;102625.22;;;1.13;100.00
5883;BME280;2967;51.488;6.618;2023-03-01T04:49:31;102605.19;;;1.04;100.00
5883;BME280;2967;51.488;6.618;2023-03-01T04:54:34;102586.91;;;0.88;100.00
5883;BME280;2967;51.488;6.618;2023-03-01T04:59:37;102554.78;;;0.75;100.00
5883;BME280;2967;51.488;6.618;2023-03-01T05:04:42;102594.78;;;0.95;100.00
5883;BME280;2967;51.488;6.618;2023-03-01T05:09:45;102499.09;;;0.40;100.00
5883;BME280;2967;51.488;6.618;2023-03-01T05:14:47;102533.06;;;0.72;100.00
5883;BME280;2967;51.488;6.618;2023-03-01T05:19:53;102545.25;;;0.82;100.00
5883;BME280;2967;51.488;6.618;2023-03-01T05:24:57;102583.47;;;0.95;100.00
5883;BME280;2967;51.488;6.618;2023-03-01T05:29:59;102518.22;;;0.48;100.00
5883;BME280;2967;51.488;6.618;2023-03-01T05:35:17;102537.41;;;0.79;100.00
5883;BME280;2967;51.488;6.618;2023-03-01T05:40:21;102555.63;;;0.76;100.00
5883;BME280;2967;51.488;6.618;2023-03-01T05:45:27;102538.22;;;0.61;100.00
5883;BME280;2967;51.488;6.618;2023-03-01T05:50:33;102543.47;;;0.73;100.00
5883;BME280;2967;51.488;6.618;2023-03-01T05:56:10;102301.84;;;-0.76;100.00
5883;BME280;2967;51.488;6.618;2023-03-01T06:01:12;102547.81;;;0.71;100.00
5883;BME280;2967;51.488;6.618;2023-03-01T06:06:17;102571.28;;;0.83;100.00
5883;BME280;2967;51.488;6.618;2023-03-01T06:11:20;102593.91;;;0.98;100.00
5883;BME280;2967;51.488;6.618;2023-03-01T06:16:23;102602.59;;;0.91;100.00
5883;BME280;2967;51.488;6.618;2023-03-01T06:21:27;102549.53;;;0.72;100.00
5883;BME280;2967;51.488;6.618;2023-03-01T06:26:30;102477.41;;;0.31;100.00
5883;BME280;2967;51.488;6.618;2023-03-01T06:31:33;102541.72;;;0.72;100.00
5883;BME280;2967;51.488;6.618;2023-03-01T06:36:37;102572.19;;;0.93;100.00
5883;BME280;2967;51.488;6.618;2023-03-01T06:41:40;102488.72;;;0.45;100.00
5883;BME280;2967;51.488;6.618;2023-03-01T06:46:43;102527.88;;;0.81;100.00
5883;BME280;2967;51.488;6.618;2023-03-01T06:51:47;102579.19;;;1.07;100.00
5883;BME280;2967;51.488;6.618;2023-03-01T06:56:50;102578.31;;;1.20;100.00
5883;BME280;2967;51.488;6.618;2023-03-01T07:01:53;102580.09;;;1.27;100.00
5883;BME280;2967;51.488;6.618;2023-03-01T07:06:59;102458.38;;;0.63;100.00
5883;BME280;2967;51.488;6.618;2023-03-01T07:12:02;102577.50;;;1.41;100.00
5883;BME280;2967;51.488;6.618;2023-03-01T07:17:05;102587.03;;;1.52;100.00
5883;BME280;2967;51.488;6.618;2023-03-01T07:22:11;102585.31;;;1.48;100.00
5883;BME280;2967;51.488;6.618;2023-03-01T07:27:14;102586.19;;;1.50;100.00
5883;BME280;2967;51.488;6.618;2023-03-01T07:32:20;102592.25;;;1.57;100.00
5883;BME280;2967;51.488;6.618;2023-03-01T07:37:24;102579.25;;;1.76;100.00
5883;BME280;2967;51.488;6.618;2023-03-01T07:42:27;102583.59;;;1.86;100.00
5883;BME280;2967;51.488;6.618;2023-03-01T07:47:30;102576.59;;;1.91;100.00
5883;BME280;2967;51.488;6.618;2023-03-01T07:52:34;102579.22;;;2.00;100.00
5883;BME280;2967;51.488;6.618;2023-03-01T07:57:37;102577.41;;;2.23;100.00
5883;BME280;2967;51.488;6.618;2023-03-01T08:02:40;102357.72;;;1.07;100.00
5883;BME280;2967;51.488;6.618;2023-03-01T08:07:45;102566.97;;;2.26;100.00
5883;BME280;2967;51.488;6.618;2023-03-01T08:12:54;102504.38;;;2.08;100.00
5883;BME280;2967;51.488;6.618;2023-03-01T08:18:07;102585.16;;;2.48;100.00
5883;BME280;2967;51.488;6.618;2023-03-01T08:23:11;102551.28;;;2.37;99.86
5883;BME280;2967;51.488;6.618;2023-03-01T08:28:14;102539.94;;;2.42;100.00
5883;BME280;2967;51.488;6.618;2023-03-01T08:33:17;102546.88;;;2.53;99.26
5883;BME280;2967;51.488;6.618;2023-03-01T08:38:21;102360.16;;;1.60;98.50
5883;BME280;2967;51.488;6.618;2023-03-01T08:43:24;102568.44;;;2.93;99.36
5883;BME280;2967;51.488;6.618;2023-03-01T08:48:27;102568.34;;;3.06;97.43
5883;BME280;2967;51.488;6.618;2023-03-01T08:53:31;102568.31;;;3.15;97.48
5883;BME280;2967;51.488;6.618;2023-03-01T09:05:21;102473.53;;;2.88;95.77
5883;BME280;2967;51.488;6.618;2023-03-01T09:23:59;102545.16;;;3.76;93.12
5883;BME280;2967;51.488;6.618;2023-03-01T09:29:02;102334.31;;;2.65;91.88
5883;BME280;2967;51.488;6.618;2023-03-01T09:34:06;102307.38;;;2.61;92.56
5883;BME280;2967;51.488;6.618;2023-03-01T09:39:12;102310.53;;;2.95;93.25
5883;BME280;2967;51.488;6.618;2023-03-01T09:44:26;102534.97;;;4.30;90.52
5883;BME280;2967;51.488;6.618;2023-03-01T09:49:33;102481.94;;;4.12;90.87
5883;BME280;2967;51.488;6.618;2023-03-01T09:54:39;102453.16;;;4.10;90.32
5883;BME280;2967;51.488;6.618;2023-03-01T09:59:52;102470.31;;;4.37;89.40
5883;BME280;2967;51.488;6.618;2023-03-01T10:05:05;102508.22;;;4.74;87.54
5883;BME280;2967;51.488;6.618;2023-03-01T10:10:26;102416.19;;;4.34;85.96
5883;BME280;2967;51.488;6.618;2023-03-01T10:15:34;102499.97;;;5.01;88.57
5883;BME280;2967;51.488;6.618;2023-03-01T10:20:44;102408.97;;;4.50;86.51
5883;BME280;2967;51.488;6.618;2023-03-01T10:26:22;102491.97;;;5.09;84.73
5883;BME280;2967;51.488;6.618;2023-03-01T10:31:37;102452.13;;;4.87;83.61
5883;BME280;2967;51.488;6.618;2023-03-01T10:36:42;102391.22;;;4.70;85.05
5883;BME280;2967;51.488;6.618;2023-03-01T10:41:58;102477.66;;;5.28;82.67
5883;BME280;2967;51.488;6.618;2023-03-01T10:47:01;102376.09;;;4.87;85.38
5883;BME280;2967;51.488;6.618;2023-03-01T10:52:17;102440.72;;;5.42;82.65
5883;BME280;2967;51.488;6.618;2023-03-01T10:57:46;102424.84;;;5.48;84.24
5883;BME280;2967;51.488;6.618;2023-03-01T11:03:09;102401.38;;;5.40;82.39
5883;BME280;2967;51.488;6.618;2023-03-01T11:08:12;102429.00;;;5.59;82.69
5883;BME280;2967;51.488;6.618;2023-03-01T11:13:21;102431.38;;;5.73;83.36
5883;BME280;2967;51.488;6.618;2023-03-01T11:18:24;102342.94;;;5.31;83.20
5883;BME280;2967;51.488;6.618;2023-03-01T11:23:47;102369.47;;;5.61;83.50
5883;BME280;2967;51.488;6.618;2023-03-01T11:28:55;102385.81;;;5.75;80.82
5883;BME280;2967;51.488;6.618;2023-03-01T11:34:09;102334.00;;;5.86;80.99
5883;BME280;2967;51.488;6.618;2023-03-01T11:39:22;102404.56;;;6.42;79.89
5883;BME280;2967;51.488;6.618;2023-03-01T11:44:33;102107.16;;;4.77;77.85
5883;BME280;2967;51.488;6.618;2023-03-01T11:49:49;102287.41;;;5.94;78.57
5883;BME280;2967;51.488;6.618;2023-03-01T11:55:08;102378.56;;;6.67;77.82
5883;BME280;2967;51.488;6.618;2023-03-01T12:00:24;102362.91;;;6.62;75.57
5883;BME280;2967;51.488;6.618;2023-03-01T12:05:53;102408.09;;;7.46;76.77
5883;BME280;2967;51.488;6.618;2023-03-01T12:11:12;102410.50;;;7.87;74.71
5883;BME280;2967;51.488;6.618;2023-03-01T12:16:25;102396.63;;;7.80;71.75
5883;BME280;2967;51.488;6.618;2023-03-01T12:21:49;102271.69;;;7.30;73.77
5883;BME280;2967;51.488;6.618;2023-03-01T12:27:07;102305.56;;;7.72;73.04
5883;BME280;2967;51.488;6.618;2023-03-01T12:32:25;102345.38;;;7.92;73.85
5883;BME280;2967;51.488;6.618;2023-03-01T12:37:55;102353.06;;;8.28;73.54
5883;BME280;2967;51.488;6.618;2023-03-01T12:43:10;102342.91;;;8.44;72.20
5883;BME280;2967;51.488;6.618;2023-03-01T12:48:33;102345.47;;;8.47;72.94
5883;BME280;2967;51.488;6.618;2023-03-01T12:53:47;102253.50;;;8.09;71.77
5883;BME280;2967;51.488;6.618;2023-03-01T12:58:57;102331.53;;;8.69;70.38
5883;BME280;2967;51.488;6.618;2023-03-01T13:04:17;102277.50;;;8.55;71.09
5883;BME280;2967;51.488;6.618;2023-03-01T13:09:28;102301.41;;;9.02;69.63
5883;BME280;2967;51.488;6.618;2023-03-01T13:14:37;102230.53;;;8.66;68.10
5883;BME280;2967;51.488;6.618;2023-03-01T13:19:57;102319.59;;;9.59;69.81
5883;BME280;2967;51.488;6.618;2023-03-01T13:25:13;102265.00;;;9.35;68.98
5883;BME280;2967;51.488;6.618;2023-03-01T13:30:40;102314.97;;;9.41;67.95
5883;BME280;2967;51.488;6.618;2023-03-01T13:35:46;102299.50;;;9.78;67.61
5883;BME280;2967;51.488;6.618;2023-03-01T13:40:59;102264.97;;;9.82;66.85
5883;BME280;2967;51.488;6.618;2023-03-01T13:46:08;102281.91;;;10.00;64.96
5883;BME280;2967;51.488;6.618;2023-03-01T13:51:14;102279.22;;;9.78;64.79
5883;BME280;2967;51.488;6.618;2023-03-01T13:56:23;102216.38;;;9.63;64.00
5883;BME280;2967;51.488;6.618;2023-03-01T14:01:28;102224.16;;;9.89;63.86
5883;BME280;2967;51.488;6.618;2023-03-01T14:06:33;102242.47;;;10.38;65.86
5883;BME280;2967;51.488;6.618;2023-03-01T14:11:59;102155.13;;;9.97;66.34
5883;BME280;2967;51.488;6.618;2023-03-01T14:17:29;102170.09;;;10.19;63.28
5883;BME280;2967;51.488;6.618;2023-03-01T14:22:45;102211.41;;;10.43;64.85
5883;BME280;2967;51.488;6.618;2023-03-01T14:27:55;102233.84;;;10.74;66.58
5883;BME280;2967;51.488;6.618;2023-03-01T14:33:00;102227.94;;;10.48;62.70
5883;BME280;2967;51.488;6.618;2023-03-01T14:38:04;102195.59;;;10.61;66.91
5883;BME280;2967;51.488;6.618;2023-03-01T14:43:09;102208.59;;;10.67;62.93
5883;BME280;2967;51.488;6.618;2023-03-01T14:48:13;102163.50;;;10.49;66.73
5883;BME280;2967;51.488;6.618;2023-03-01T14:53:25;102103.13;;;10.39;71.41
5883;BME280;2967;51.488;6.618;2023-03-01T14:58:28;101996.25;;;9.63;62.68
5883;BME280;2967;51.488;6.618;2023-03-01T15:03:36;102176.13;;;10.43;61.52
5883;BME280;2967;51.488;6.618;2023-03-01T15:08:46;102177.13;;;10.40;61.63
5883;BME280;2967;51.488;6.618;2023-03-01T15:13:53;102141.50;;;10.29;60.47
5883;BME280;2967;51.488;6.618;2023-03-01T15:19:20;102087.47;;;9.71;61.13
5883;BME280;2967;51.488;6.618;2023-03-01T15:31:25;101878.75;;;7.99;63.08
5883;BME280;2967;51.488;6.618;2023-03-01T15:36:48;101979.16;;;8.41;63.83
5883;BME280;2967;51.488;6.618;2023-03-01T15:41:59;102151.63;;;9.30;65.11
5883;BME280;2967;51.488;6.618;2023-03-01T15:47:34;102163.28;;;9.25;65.66
5883;BME280;2967;51.488;6.618;2023-03-01T16:00:14;101625.03;;;5.59;64.34
5883;BME280;2967;51.488;6.618;2023-03-01T16:06:00;102085.41;;;7.92;66.65
5883;BME280;2967;51.488;6.618;2023-03-01T16:11:17;102159.22;;;8.44;67.45
5883;BME280;2967;51.488;6.618;2023-03-01T16:16:25;102160.47;;;8.33;67.12
5883;BME280;2967;51.488;6.618;2023-03-01T16:21:45;102137.25;;;8.18;69.22
5883;BME280;2967;51.488;6.618;2023-03-01T16:26:54;102145.72;;;8.27;68.83
5883;BME280;2967;51.488;6.618;2023-03-01T16:32:09;102156.06;;;8.06;70.27
5883;BME280;2967;51.488;6.618;2023-03-01T16:37:34;102100.44;;;7.63;70.94
5883;BME280;2967;51.488;6.618;2023-03-01T16:42:38;102031.94;;;7.10;71.18
5883;BME280;2967;51.488;6.618;2023-03-01T16:47:51;102052.91;;;7.13;72.44
5883;BME280;2967;51.488;6.618;2023-03-01T16:53:12;102152.09;;;7.67;72.02
5883;BME280;2967;51.488;6.618;2023-03-01T16:58:15;102131.22;;;7.34;72.99
5883;BME280;2967;51.488;6.618;2023-03-01T17:03:20;102103.88;;;7.09;73.22
5883;BME280;2967;51.488;6.618;2023-03-01T17:08:30;101925.09;;;5.91;74.05
5883;BME280;2967;51.488;6.618;2023-03-01T17:13:33;102159.69;;;7.20;73.63
5883;BME280;2967;51.488;6.618;2023-03-01T17:18:37;102117.31;;;7.00;73.32
5883;BME280;2967;51.488;6.618;2023-03-01T17:23:45;102021.19;;;6.30;74.30
5883;BME280;2967;51.488;6.618;2023-03-01T17:28:48;102161.19;;;6.99;74.57
5883;BME280;2967;51.488;6.618;2023-03-01T17:33:52;102114.16;;;6.58;74.55
5883;BME280;2967;51.488;6.618;2023-03-01T17:39:03;102161.59;;;6.84;75.57
5883;BME280;2967;51.488;6.618;2023-03-01T17:44:06;102075.69;;;6.22;75.60
5883;BME280;2967;51.488;6.618;2023-03-01T17:49:17;101921.56;;;5.25;74.87
5883;BME280;2967;51.488;6.618;2023-03-01T17:54:21;102007.06;;;5.69;74.88
5883;BME280;2967;51.488;6.618;2023-03-01T17:59:24;102123.78;;;6.26;75.88
5883;BME280;2967;51.488;6.618;2023-03-01T18:04:39;102065.91;;;5.95;75.83
5883;BME280;2967;51.488;6.618;2023-03-01T18:09:43;102119.66;;;6.16;75.50
5883;BME280;2967;51.488;6.618;2023-03-01T18:14:47;101960.06;;;5.26;76.09
5883;BME280;2967;51.488;6.618;2023-03-01T18:19:54;102089.66;;;5.91;76.34
5883;BME280;2967;51.488;6.618;2023-03-01T18:24:59;102126.94;;;6.06;76.04
5883;BME280;2967;51.488;6.618;2023-03-01T18:30:03;102076.91;;;5.74;76.79
5883;BME280;2967;51.488;6.618;2023-03-01T18:35:34;102160.78;;;6.50;89.26
5883;BME280;2967;51.488;6.618;2023-03-01T18:40:42;102157.00;;;6.60;77.81
5883;BME280;2967;51.488;6.618;2023-03-01T18:45:47;102124.09;;;6.47;76.52
5883;BME280;2967;51.488;6.618;2023-03-01T18:50:53;102158.88;;;6.55;75.90
5883;BME280;2967;51.488;6.618;2023-03-01T19:08:38;102142.41;;;6.17;76.87
5883;BME280;2967;51.488;6.618;2023-03-01T19:13:45;102088.28;;;5.75;79.66
5883;BME280;2967;51.488;6.618;2023-03-01T19:18:54;102126.41;;;5.91;78.04
5883;BME280;2967;51.488;6.618;2023-03-01T19:24:06;102070.75;;;5.40;78.68
5883;BME280;2967;51.488;6.618;2023-03-01T19:29:09;101956.13;;;4.71;79.27
5883;BME280;2967;51.488;6.618;2023-03-01T19:34:13;101930.03;;;4.27;79.82
5883;BME280;2967;51.488;6.618;2023-03-01T19:39:17;102140.28;;;5.59;80.53
5883;BME280;2967;51.488;6.618;2023-03-01T19:44:20;101906.06;;;4.04;80.28
5883;BME280;2967;51.488;6.618;2023-03-01T19:49:25;102136.06;;;5.52;81.47
5883;BME280;2967;51.488;6.618;2023-03-01T19:54:31;102130.91;;;5.48;80.79
5883;BME280;2967;51.488;6.618;2023-03-01T19:59:34;102045.63;;;4.93;81.12
5883;BME280;2967;51.488;6.618;2023-03-01T20:04:37;102130.91;;;5.48;81.22
5883;BME280;2967;51.488;6.618;2023-03-01T20:09:41;102033.69;;;4.80;81.79
5883;BME280;2967;51.488;6.618;2023-03-01T20:14:49;102030.38;;;4.72;81.81
5883;BME280;2967;51.488;6.618;2023-03-01T20:19:55;102133.03;;;5.31;82.79
5883;BME280;2967;51.488;6.618;2023-03-01T20:25:01;102003.72;;;4.52;82.57
5883;BME280;2967;51.488;6.618;2023-03-01T20:30:21;102135.00;;;5.23;82.90
5883;BME280;2967;51.488;6.618;2023-03-01T20:35:27;101893.44;;;3.83;82.36
5883;BME280;2967;51.488;6.618;2023-03-01T20:41:00;101603.44;;;1.96;82.35
5883;BME280;2967;51.488;6.618;2023-03-01T20:46:12;102011.66;;;4.49;82.97
5883;BME280;2967;51.488;6.618;2023-03-01T20:51:16;102127.22;;;5.18;82.56
5883;BME280;2967;51.488;6.618;2023-03-01T20:56:23;102116.50;;;4.88;83.04
5883;BME280;2967;51.488;6.618;2023-03-01T21:01:37;101771.94;;;3.10;82.83
5883;BME280;2967;51.488;6.618;2023-03-01T21:06:43;101978.22;;;4.17;83.14
5883;BME280;2967;51.488;6.618;2023-03-01T21:11:49;102104.28;;;4.87;83.91
5883;BME280;2967;51.488;6.618;2023-03-01T21:16:57;101618.09;;;2.03;84.02
5883;BME280;2967;51.488;6.618;2023-03-01T21:22:09;101919.69;;;3.79;84.79
5883;BME280;2967;51.488;6.618;2023-03-01T21:27:15;102098.50;;;4.72;85.12
5883;BME280;2967;51.488;6.618;2023-03-01T21:32:17;102127.00;;;4.88;85.15
5883;BME280;2967;51.488;6.618;2023-03-01T21:37:20;101982.06;;;4.00;85.93
5883;BME280;2967;51.488;6.618;2023-03-01T21:42:29;101989.63;;;4.15;85.29
5883;BME280;2967;51.488;6.618;2023-03-01T21:47:35;102114.81;;;4.86;85.32
5883;BME280;2967;51.488;6.618;2023-03-01T21:52:39;101499.72;;;1.07;85.27
5883;BME280;2967;51.488;6.618;2023-03-01T21:57:43;102077.25;;;4.43;86.20
5883;BME280;2967;51.488;6.618;2023-03-01T22:02:46;102064.31;;;4.35;86.81
5883;BME280;2967;51.488;6.618;2023-03-01T22:07:49;102090.25;;;4.49;86.76
5883;BME280;2967;51.488;6.618;2023-03-01T22:12:57;101817.66;;;2.86;87.05
5883;BME280;2967;51.488;6.618;2023-03-01T22:18:12;102003.91;;;3.99;87.14
5883;BME280;2967;51.488;6.618;2023-03-01T22:23:29;101970.16;;;3.84;87.42
5883;BME280;2967;51.488;6.618;2023-03-01T22:28:41;101915.69;;;3.58;86.49
5883;BME280;2967;51.488;6.618;2023-03-01T22:33:53;102100.38;;;4.65;86.95
5883;BME280;2967;51.488;6.618;2023-03-01T22:39:00;102129.06;;;4.73;87.11
5883;BME280;2967;51.488;6.618;2023-03-01T22:44:42;102101.84;;;4.80;85.78
5883;BME280;2967;51.488;6.618;2023-03-01T22:49:57;101703.47;;;2.46;85.53
5883;BME280;2967;51.488;6.618;2023-03-01T22:55:02;102125.53;;;4.75;85.68
5883;BME280;2967;51.488;6.618;2023-03-01T23:00:18;102054.78;;;4.31;86.62
5883;BME280;2967;51.488;6.618;2023-03-01T23:05:32;101907.13;;;3.50;86.08
5883;BME280;2967;51.488;6.618;2023-03-01T23:10:39;102099.50;;;4.65;85.84
5883;BME280;2967;51.488;6.618;2023-03-01T23:15:57;102100.31;;;4.70;86.02
5883;BME280;2967;51.488;6.618;2023-03-01T23:21:07;102113.41;;;4.70;86.53
5883;BME280;2967;51.488;6.618;2023-03-01T23:26:13;102109.09;;;4.66;86.34
5883;BME280;2967;51.488;6.618;2023-03-01T23:31:19;102110.16;;;4.57;86.61
5883;BME280;2967;51.488;6.618;2023-03-01T23:36:27;102026.44;;;4.06;86.25
5883;BME280;2967;51.488;6.618;2023-03-01T23:41:34;102053.97;;;4.28;86.07
5883;BME280;2967;51.488;6.618;2023-03-01T23:46:39;102101.56;;;4.49;86.08
5883;BME280;2967;51.488;6.618;2023-03-01T23:51:44;102031.66;;;4.07;86.11
5883;BME280;2967;51.488;6.618;2023-03-01T23:56:48;102061.88;;;4.25;85.81
